Time,TemperatureF,DewpointF,PressureIn,WindDirection,WindDirectionDegrees,WindSpeedMPH,WindSpeedGustMPH,Humidity,HourlyPrecipIn,Conditions,Clouds,dailyrainin,SoftwareType,DateUTC
2013-02-07 00:00:00,63.1,60.4,30.08,East,93,0.0,0.0,91,0.00,,---,0.00,VWS V14.01,2013-02-07 05:00:00,
2013-02-07 00:01:00,63.0,60.3,30.08,East,93,0.0,0.0,91,0.00,,---,0.00,VWS V14.01,2013-02-07 05:01:00,
2013-02-07 00:06:00,63.0,60.3,30.08,East,94,0.0,0.0,91,0.00,,---,0.00,VWS V14.01,2013-02-07 05:06:00,
2013-02-07 00:10:00,61.6,59.6,30.07,East,87,0.0,0.0,93,0.00,,---,0.00,VWS V14.01,2013-02-07 05:10:00,
2013-02-07 00:11:00,62.9,60.5,30.08,East,91,0.0,0.0,92,0.00,,---,0.00,VWS V14.01,2013-02-07 05:11:00,
2013-02-07 00:16:00,62.9,60.5,30.08,East,88,0.0,1.0,92,0.00,,---,0.00,VWS V14.01,2013-02-07 05:16:00,
2013-02-07 00:20:00,62.9,60.5,30.07,East,88,0.0,1.0,92,0.00,,---,0.00,VWS V14.01,2013-02-07 05:20:00,
2013-02-07 00:21:00,62.8,60.5,30.07,East,87,0.0,0.0,92,0.00,,---,0.00,VWS V14.01,2013-02-07 05:21:00,
2013-02-07 00:26:00,62.8,60.5,30.07,East,87,0.0,0.0,92,0.00,,---,0.00,VWS V14.01,2013-02-07 05:26:00,
2013-02-07 00:30:00,60.8,58.8,30.07,East,87,0.0,0.0,93,0.00,,---,0.00,VWS V14.01,2013-02-07 05:30:00,
2013-02-07 00:31:00,62.6,60.2,30.07,East,87,0.0,0.0,92,0.00,,---,0.00,VWS V14.01,2013-02-07 05:31:00,
2013-02-07 00:37:00,62.6,60.2,30.07,East,88,0.0,0.0,92,0.00,,---,0.00,VWS V14.01,2013-02-07 05:37:00,
2013-02-07 00:40:00,60.5,58.8,30.07,East,87,0.0,0.0,94,0.00,,---,0.00,VWS V14.01,2013-02-07 05:40:00,
2013-02-07 00:42:00,62.4,60.0,30.07,East,87,0.0,0.0,92,0.00,,---,0.00,VWS V14.01,2013-02-07 05:42:00,
2013-02-07 00:46:00,62.4,60.0,30.08,East,88,0.0,0.0,92,0.00,,---,0.00,VWS V14.01,2013-02-07 05:46:00,
2013-02-07 00:50:00,62.3,60.0,30.08,East,88,0.0,0.0,92,0.00,,---,0.00,VWS V14.01,2013-02-07 05:50:00,
2013-02-07 00:52:00,62.2,59.8,30.08,East,87,0.0,0.0,92,0.00,,---,0.00,VWS V14.01,2013-02-07 05:52:00,
2013-02-07 00:57:00,62.0,59.7,30.07,East,87,0.0,0.0,92,0.00,,---,0.00,VWS V14.01,2013-02-07 05:57:00,
2013-02-07 01:00:00,61.9,59.6,30.07,East,88,0.0,0.0,92,0.00,,---,0.00,VWS V14.01,2013-02-07 06:00:00,
2013-02-07 01:02:00,61.8,59.8,30.07,East,88,0.0,0.0,93,0.00,,---,0.00,VWS V14.01,2013-02-07 06:02:00,
2013-02-07 01:07:00,61.6,59.6,30.07,East,87,0.0,0.0,93,0.00,,---,0.00,VWS V14.01,2013-02-07 06:07:00,
2013-02-07 01:10:00,60.3,58.9,30.06,East,87,0.0,0.0,95,0.00,,---,0.00,VWS V14.01,2013-02-07 06:10:00,
2013-02-07 01:12:00,61.5,59.5,30.07,East,88,0.0,0.0,93,0.00,,---,0.00,VWS V14.01,2013-02-07 06:12:00,
2013-02-07 01:17:00,61.3,59.3,30.07,East,87,0.0,0.0,93,0.00,,---,0.00,VWS V14.01,2013-02-07 06:17:00,
2013-02-07 01:20:00,61.3,59.3,30.07,East,88,0.0,0.0,93,0.00,,---,0.00,VWS V14.01,2013-02-07 06:20:00,
2013-02-07 01:22:00,61.2,59.2,30.07,East,87,0.0,0.0,93,0.00,,---,0.00,VWS V14.01,2013-02-07 06:22:00,
2013-02-07 01:27:00,60.9,58.9,30.07,East,87,0.0,0.0,93,0.00,,---,0.00,VWS V14.01,2013-02-07 06:27:00,
2013-02-07 01:30:00,60.8,58.8,30.07,East,87,0.0,0.0,93,0.00,,---,0.00,VWS V14.01,2013-02-07 06:30:00,
2013-02-07 01:32:00,60.7,59.0,30.07,East,88,0.0,0.0,94,0.00,,---,0.00,VWS V14.01,2013-02-07 06:32:00,
2013-02-07 01:37:00,60.5,58.8,30.07,East,87,0.0,0.0,94,0.00,,---,0.00,VWS V14.01,2013-02-07 06:37:00,
2013-02-07 01:40:00,60.5,58.8,30.07,East,87,0.0,0.0,94,0.00,,---,0.00,VWS V14.01,2013-02-07 06:40:00,
2013-02-07 01:42:00,60.5,58.8,30.07,East,88,0.0,0.0,94,0.00,,---,0.00,VWS V14.01,2013-02-07 06:42:00,
2013-02-07 01:47:00,60.5,58.8,30.07,East,87,0.0,0.0,94,0.00,,---,0.00,VWS V14.01,2013-02-07 06:47:00,
2013-02-07 01:50:00,60.5,58.8,30.07,East,87,0.0,0.0,94,0.00,,---,0.00,VWS V14.01,2013-02-07 06:50:00,
2013-02-07 01:52:00,60.5,59.1,30.07,East,87,0.0,0.0,95,0.00,,---,0.00,VWS V14.01,2013-02-07 06:52:00,
2013-02-07 01:57:00,60.5,59.1,30.07,East,87,0.0,0.0,95,0.00,,---,0.00,VWS V14.01,2013-02-07 06:57:00,
2013-02-07 02:00:00,60.5,59.1,30.07,East,88,0.0,0.0,95,0.00,,---,0.00,VWS V14.01,2013-02-07 07:00:00,
2013-02-07 02:02:00,60.5,59.1,30.07,East,87,0.0,0.0,95,0.00,,---,0.00,VWS V14.01,2013-02-07 07:02:00,
2013-02-07 02:07:00,60.4,59.0,30.07,East,87,0.0,0.0,95,0.00,,---,0.00,VWS V14.01,2013-02-07 07:07:00,
2013-02-07 02:10:00,60.3,58.9,30.06,East,87,0.0,0.0,95,0.00,,---,0.00,VWS V14.01,2013-02-07 07:10:00,
2013-02-07 02:12:00,60.4,59.0,30.06,East,88,0.0,0.0,95,0.00,,---,0.00,VWS V14.01,2013-02-07 07:12:00,
2013-02-07 02:17:00,60.3,58.9,30.06,East,88,0.0,0.0,95,0.00,,---,0.00,VWS V14.01,2013-02-07 07:17:00,
2013-02-07 02:20:00,60.2,58.8,30.06,East,87,0.0,0.0,95,0.00,,---,0.00,VWS V14.01,2013-02-07 07:20:00,
2013-02-07 02:22:00,60.0,58.6,30.06,East,87,0.0,0.0,95,0.00,,---,0.00,VWS V14.01,2013-02-07 07:22:00,
2013-02-07 02:27:00,59.9,58.5,30.06,East,88,0.0,0.0,95,0.00,,---,0.00,VWS V14.01,2013-02-07 07:27:00,
2013-02-07 02:30:00,59.9,58.5,30.06,East,87,0.0,0.0,95,0.00,,---,0.00,VWS V14.01,2013-02-07 07:30:00,
2013-02-07 02:32:00,59.9,58.5,30.06,East,88,0.0,0.0,95,0.00,,---,0.00,VWS V14.01,2013-02-07 07:32:00,
2013-02-07 02:37:00,59.9,58.5,30.05,East,87,0.0,0.0,95,0.00,,---,0.00,VWS V14.01,2013-02-07 07:37:00,
2013-02-07 02:40:00,60.6,59.8,30.04,ESE,123,0.0,0.0,97,0.00,,---,0.00,VWS V14.01,2013-02-07 07:40:00,
2013-02-07 02:42:00,60.0,58.9,30.05,East,87,0.0,0.0,96,0.00,,---,0.00,VWS V14.01,2013-02-07 07:42:00,
2013-02-07 02:47:00,60.1,59.0,30.05,East,88,0.0,0.0,96,0.00,,---,0.00,VWS V14.01,2013-02-07 07:47:00,
2013-02-07 02:50:00,61.0,60.2,30.04,East,98,0.0,2.0,97,0.00,,---,0.00,VWS V14.01,2013-02-07 07:50:00,
2013-02-07 02:52:00,60.0,58.6,30.05,East,87,0.0,0.0,95,0.00,,---,0.00,VWS V14.01,2013-02-07 07:52:00,
2013-02-07 02:57:00,59.7,58.3,30.05,East,88,0.0,0.0,95,0.00,,---,0.00,VWS V14.01,2013-02-07 07:57:00,
2013-02-07 03:00:00,61.1,60.0,30.04,East,99,0.0,1.0,96,0.00,,---,0.00,VWS V14.01,2013-02-07 08:00:00,
2013-02-07 03:02:00,59.5,58.1,30.05,East,87,0.0,0.0,95,0.00,,---,0.00,VWS V14.01,2013-02-07 08:02:00,
2013-02-07 03:07:00,59.4,58.3,30.05,East,87,0.0,0.0,96,0.00,,---,0.00,VWS V14.01,2013-02-07 08:07:00,
2013-02-07 03:10:00,59.4,58.3,30.05,East,88,0.0,0.0,96,0.00,,---,0.00,VWS V14.01,2013-02-07 08:10:00,
2013-02-07 03:12:00,59.4,58.3,30.05,East,87,0.0,0.0,96,0.00,,---,0.00,VWS V14.01,2013-02-07 08:12:00,
2013-02-07 03:17:00,59.5,58.4,30.04,East,87,0.0,0.0,96,0.00,,---,0.00,VWS V14.01,2013-02-07 08:17:00,
2013-02-07 03:20:00,59.6,58.5,30.04,East,87,0.0,0.0,96,0.00,,---,0.00,VWS V14.01,2013-02-07 08:20:00,
2013-02-07 03:22:00,59.7,58.6,30.04,East,87,0.0,0.0,96,0.00,,---,0.00,VWS V14.01,2013-02-07 08:22:00,
2013-02-07 03:27:00,60.0,58.9,30.04,East,87,0.0,0.0,96,0.00,,---,0.00,VWS V14.01,2013-02-07 08:27:00,
2013-02-07 03:30:00,61.8,60.7,30.04,ESE,103,0.0,1.0,96,0.00,,---,0.00,VWS V14.01,2013-02-07 08:30:00,
2013-02-07 03:32:00,60.2,59.1,30.04,East,93,0.0,0.0,96,0.00,,---,0.00,VWS V14.01,2013-02-07 08:32:00,
2013-02-07 03:37:00,60.5,59.7,30.04,East,95,0.0,0.0,97,0.00,,---,0.00,VWS V14.01,2013-02-07 08:37:00,
2013-02-07 03:40:00,62.1,61.0,30.04,ESE,111,1.0,2.0,96,0.00,,---,0.00,VWS V14.01,2013-02-07 08:40:00,
2013-02-07 03:42:00,60.7,59.8,30.04,ESE,120,0.0,2.0,97,0.00,,---,0.00,VWS V14.01,2013-02-07 08:42:00,
2013-02-07 03:47:00,60.9,60.0,30.04,East,99,0.0,2.0,97,0.00,,---,0.00,VWS V14.01,2013-02-07 08:47:00,
2013-02-07 03:50:00,61.0,60.2,30.04,East,98,0.0,2.0,97,0.00,,---,0.00,VWS V14.01,2013-02-07 08:50:00,
2013-02-07 03:52:00,61.0,59.9,30.04,East,101,0.0,1.0,96,0.00,,---,0.00,VWS V14.01,2013-02-07 08:52:00,
2013-02-07 03:57:00,61.1,60.0,30.04,East,99,0.0,1.0,96,0.00,,---,0.00,VWS V14.01,2013-02-07 08:57:00,
2013-02-07 04:00:00,62.5,61.0,30.04,ESE,102,0.0,3.0,95,0.00,,---,0.00,VWS V14.01,2013-02-07 09:00:00,
2013-02-07 04:02:00,61.1,60.0,30.04,East,91,0.0,0.0,96,0.00,,---,0.00,VWS V14.01,2013-02-07 09:02:00,
2013-02-07 04:07:00,61.2,60.0,30.04,East,91,0.0,0.0,96,0.00,,---,0.00,VWS V14.01,2013-02-07 09:07:00,
2013-02-07 04:10:00,61.2,60.0,30.04,East,90,0.0,1.0,96,0.00,,---,0.00,VWS V14.01,2013-02-07 09:10:00,
2013-02-07 04:12:00,61.3,60.2,30.04,SE,124,1.0,1.0,96,0.00,,---,0.00,VWS V14.01,2013-02-07 09:12:00,
2013-02-07 04:17:00,61.4,60.2,30.04,East,89,0.0,1.0,96,0.00,,---,0.00,VWS V14.01,2013-02-07 09:17:00,
2013-02-07 04:20:00,61.4,60.2,30.04,East,98,0.0,1.0,96,0.00,,---,0.00,VWS V14.01,2013-02-07 09:20:00,
2013-02-07 04:22:00,61.5,60.3,30.04,ESE,107,0.0,1.0,96,0.00,,---,0.00,VWS V14.01,2013-02-07 09:22:00,
2013-02-07 04:27:00,61.8,60.9,30.04,East,94,0.0,1.0,97,0.00,,---,0.00,VWS V14.01,2013-02-07 09:27:00,
2013-02-07 04:30:00,61.8,60.7,30.04,ESE,103,0.0,1.0,96,0.00,,---,0.00,VWS V14.01,2013-02-07 09:30:00,
2013-02-07 04:32:00,61.9,60.8,30.04,ESE,122,1.0,2.0,96,0.00,,---,0.00,VWS V14.01,2013-02-07 09:32:00,
2013-02-07 04:37:00,62.0,60.8,30.04,ESE,103,1.0,2.0,96,0.00,,---,0.00,VWS V14.01,2013-02-07 09:37:00,
2013-02-07 04:40:00,62.1,61.0,30.04,ESE,111,1.0,2.0,96,0.00,,---,0.00,VWS V14.01,2013-02-07 09:40:00,
2013-02-07 04:42:00,62.2,61.0,30.04,East,87,2.0,3.0,96,0.00,,---,0.00,VWS V14.01,2013-02-07 09:42:00,
2013-02-07 04:47:00,62.3,61.2,30.04,East,90,0.0,3.0,96,0.00,,---,0.00,VWS V14.01,2013-02-07 09:47:00,
2013-02-07 04:50:00,62.4,61.2,30.04,ESE,104,2.0,3.0,96,0.00,,---,0.00,VWS V14.01,2013-02-07 09:50:00,
2013-02-07 04:52:00,62.4,61.2,30.04,ESE,102,0.0,2.0,96,0.00,,---,0.00,VWS V14.01,2013-02-07 09:52:00,
2013-02-07 04:57:00,62.5,61.0,30.04,East,97,0.0,2.0,95,0.00,,---,0.00,VWS V14.01,2013-02-07 09:57:00,
2013-02-07 05:00:00,62.5,61.0,30.04,ESE,102,0.0,3.0,95,0.00,,---,0.00,VWS V14.01,2013-02-07 10:00:00,
2013-02-07 05:02:00,62.5,61.0,30.05,ESE,116,0.0,1.0,95,0.00,,---,0.00,VWS V14.01,2013-02-07 10:02:00,
2013-02-07 05:07:00,62.5,61.0,30.05,ESE,110,0.0,1.0,95,0.00,,---,0.00,VWS V14.01,2013-02-07 10:07:00,
2013-02-07 05:10:00,62.5,60.8,30.05,ESE,107,0.0,1.0,94,0.00,,---,0.00,VWS V14.01,2013-02-07 10:10:00,
2013-02-07 05:12:00,62.4,61.0,30.05,East,91,0.0,2.0,95,0.00,,---,0.00,VWS V14.01,2013-02-07 10:12:00,
2013-02-07 05:17:00,62.5,61.0,30.05,East,96,0.0,2.0,95,0.00,,---,0.00,VWS V14.01,2013-02-07 10:17:00,
2013-02-07 05:20:00,62.5,60.8,30.05,ESE,116,0.0,2.0,94,0.00,,---,0.00,VWS V14.01,2013-02-07 10:20:00,
2013-02-07 05:22:00,62.4,60.7,30.05,ESE,122,0.0,0.0,94,0.00,,---,0.00,VWS V14.01,2013-02-07 10:22:00,
2013-02-07 05:27:00,62.5,60.8,30.05,East,90,0.0,1.0,94,0.00,,---,0.00,VWS V14.01,2013-02-07 10:27:00,
2013-02-07 05:30:00,62.5,60.8,30.05,East,91,0.0,1.0,94,0.00,,---,0.00,VWS V14.01,2013-02-07 10:30:00,
2013-02-07 05:32:00,62.5,60.8,30.05,East,87,0.0,1.0,94,0.00,,---,0.00,VWS V14.01,2013-02-07 10:32:00,
2013-02-07 05:37:00,62.4,60.7,30.05,East,79,1.0,1.0,94,0.00,,---,0.00,VWS V14.01,2013-02-07 10:37:00,
2013-02-07 05:40:00,61.6,59.9,30.05,ESE,109,0.0,1.0,94,0.00,,---,0.00,VWS V14.01,2013-02-07 10:40:00,
2013-02-07 05:42:00,62.4,60.7,30.05,NNE,30,0.0,1.0,94,0.00,,---,0.00,VWS V14.01,2013-02-07 10:42:00,
2013-02-07 05:47:00,62.5,60.8,30.05,SE,124,1.0,1.0,94,0.00,,---,0.00,VWS V14.01,2013-02-07 10:47:00,
2013-02-07 05:50:00,61.5,59.8,30.05,ESE,108,0.0,1.0,94,0.00,,---,0.00,VWS V14.01,2013-02-07 10:50:00,
2013-02-07 05:52:00,62.5,60.8,30.04,SE,124,0.0,0.0,94,0.00,,---,0.00,VWS V14.01,2013-02-07 10:52:00,
2013-02-07 05:57:00,62.5,60.8,30.05,ENE,75,0.0,2.0,94,0.00,,---,0.00,VWS V14.01,2013-02-07 10:57:00,
2013-02-07 06:00:00,62.5,60.8,30.05,ENE,75,0.0,2.0,94,0.00,,---,0.00,VWS V14.01,2013-02-07 11:00:00,
2013-02-07 06:02:00,62.5,60.8,30.05,ESE,120,0.0,1.0,94,0.00,,---,0.00,VWS V14.01,2013-02-07 11:02:00,
2013-02-07 06:07:00,62.5,60.8,30.05,ESE,108,0.0,1.0,94,0.00,,---,0.00,VWS V14.01,2013-02-07 11:07:00,
2013-02-07 06:10:00,62.5,60.8,30.05,ESE,107,0.0,1.0,94,0.00,,---,0.00,VWS V14.01,2013-02-07 11:10:00,
2013-02-07 06:12:00,62.4,60.7,30.05,ESE,107,0.0,0.0,94,0.00,,---,0.00,VWS V14.01,2013-02-07 11:12:00,
2013-02-07 06:17:00,62.3,60.6,30.05,ESE,109,0.0,1.0,94,0.00,,---,0.00,VWS V14.01,2013-02-07 11:17:00,
2013-02-07 06:20:00,61.4,60.0,30.05,ESE,111,0.0,0.0,95,0.00,,---,0.00,VWS V14.01,2013-02-07 11:20:00,
2013-02-07 06:22:00,62.1,60.4,30.05,ESE,109,0.0,0.0,94,0.00,,---,0.00,VWS V14.01,2013-02-07 11:22:00,
2013-02-07 06:27:00,61.9,60.2,30.05,ESE,109,0.0,0.0,94,0.00,,---,0.00,VWS V14.01,2013-02-07 11:27:00,
2013-02-07 06:30:00,61.8,60.1,30.05,ESE,109,0.0,0.0,94,0.00,,---,0.00,VWS V14.01,2013-02-07 11:30:00,
2013-02-07 06:33:00,61.8,60.1,30.05,ESE,109,0.0,1.0,94,0.00,,---,0.00,VWS V14.01,2013-02-07 11:33:00,
2013-02-07 06:38:00,61.6,59.9,30.05,ESE,109,0.0,1.0,94,0.00,,---,0.00,VWS V14.01,2013-02-07 11:38:00,
2013-02-07 06:40:00,61.8,60.4,30.05,ESE,111,0.0,0.0,95,0.00,,---,0.00,VWS V14.01,2013-02-07 11:40:00,
2013-02-07 06:43:00,61.6,59.9,30.05,ESE,108,0.0,1.0,94,0.00,,---,0.00,VWS V14.01,2013-02-07 11:43:00,
2013-02-07 06:48:00,61.5,59.8,30.05,ESE,109,0.0,1.0,94,0.00,,---,0.00,VWS V14.01,2013-02-07 11:48:00,
2013-02-07 06:50:00,61.5,59.8,30.05,ESE,108,0.0,1.0,94,0.00,,---,0.00,VWS V14.01,2013-02-07 11:50:00,
2013-02-07 06:53:00,61.4,59.7,30.05,ESE,109,0.0,0.0,94,0.00,,---,0.00,VWS V14.01,2013-02-07 11:53:00,
2013-02-07 06:58:00,61.3,59.6,30.05,ESE,109,0.0,0.0,94,0.00,,---,0.00,VWS V14.01,2013-02-07 11:58:00,
2013-02-07 07:00:00,62.5,60.8,30.06,ESE,118,0.0,1.0,94,0.00,,---,0.00,VWS V14.01,2013-02-07 12:00:00,
2013-02-07 07:03:00,61.4,60.0,30.05,ESE,111,0.0,0.0,95,0.00,,---,0.00,VWS V14.01,2013-02-07 12:03:00,
2013-02-07 07:08:00,61.4,60.0,30.05,ESE,111,0.0,1.0,95,0.00,,---,0.00,VWS V14.01,2013-02-07 12:08:00,
2013-02-07 07:10:00,61.4,60.0,30.05,ESE,111,0.0,1.0,95,0.00,,---,0.00,VWS V14.01,2013-02-07 12:10:00,
2013-02-07 07:13:00,61.4,60.0,30.05,ESE,112,0.0,0.0,95,0.00,,---,0.00,VWS V14.01,2013-02-07 12:13:00,
2013-02-07 07:18:00,61.4,60.0,30.05,ESE,111,0.0,0.0,95,0.00,,---,0.00,VWS V14.01,2013-02-07 12:18:00,
2013-02-07 07:20:00,63.2,61.5,30.06,East,84,0.0,0.0,94,0.00,,---,0.00,VWS V14.01,2013-02-07 12:20:00,
2013-02-07 07:23:00,61.4,60.0,30.05,ESE,111,0.0,0.0,95,0.00,,---,0.00,VWS V14.01,2013-02-07 12:23:00,
2013-02-07 07:28:00,61.5,60.1,30.05,ESE,111,0.0,0.0,95,0.00,,---,0.00,VWS V14.01,2013-02-07 12:28:00,
2013-02-07 07:30:00,64.9,62.8,30.05,ESE,106,1.0,1.0,93,0.00,,---,0.00,VWS V14.01,2013-02-07 12:30:00,
2013-02-07 07:33:00,61.6,60.2,30.05,ESE,112,0.0,0.0,95,0.00,,---,0.00,VWS V14.01,2013-02-07 12:33:00,
2013-02-07 07:38:00,61.7,60.3,30.05,ESE,111,0.0,0.0,95,0.00,,---,0.00,VWS V14.01,2013-02-07 12:38:00,
2013-02-07 07:40:00,67.2,63.8,30.04,SSE,154,0.0,2.0,89,0.00,,---,0.00,VWS V14.01,2013-02-07 12:40:00,
2013-02-07 07:43:00,61.9,60.5,30.05,ESE,112,0.0,0.0,95,0.00,,---,0.00,VWS V14.01,2013-02-07 12:43:00,
2013-02-07 07:48:00,62.1,60.7,30.05,SE,131,0.0,0.0,95,0.00,,---,0.00,VWS V14.01,2013-02-07 12:48:00,
2013-02-07 07:50:00,62.1,60.7,30.05,SE,131,0.0,0.0,95,0.00,,---,0.00,VWS V14.01,2013-02-07 12:50:00,
2013-02-07 07:53:00,62.3,60.8,30.06,ESE,118,0.0,0.0,95,0.00,,---,0.00,VWS V14.01,2013-02-07 12:53:00,
2013-02-07 07:58:00,62.4,60.7,30.06,ESE,120,0.0,1.0,94,0.00,,---,0.00,VWS V14.01,2013-02-07 12:58:00,
2013-02-07 08:00:00,62.5,60.8,30.06,ESE,118,0.0,1.0,94,0.00,,---,0.00,VWS V14.01,2013-02-07 13:00:00,
2013-02-07 08:03:00,62.5,60.8,30.05,ESE,120,0.0,1.0,94,0.00,,---,0.00,VWS V14.01,2013-02-07 13:03:00,
2013-02-07 08:08:00,62.5,60.8,30.06,ESE,120,0.0,1.0,94,0.00,,---,0.00,VWS V14.01,2013-02-07 13:08:00,
2013-02-07 08:10:00,62.6,60.8,30.06,ESE,118,0.0,1.0,94,0.00,,---,0.00,VWS V14.01,2013-02-07 13:10:00,
2013-02-07 08:13:00,62.8,61.0,30.05,ESE,118,0.0,0.0,94,0.00,,---,0.00,VWS V14.01,2013-02-07 13:13:00,
2013-02-07 08:18:00,63.2,61.5,30.06,ESE,118,0.0,0.0,94,0.00,,---,0.00,VWS V14.01,2013-02-07 13:18:00,
2013-02-07 08:20:00,63.2,61.5,30.06,East,84,0.0,0.0,94,0.00,,---,0.00,VWS V14.01,2013-02-07 13:20:00,
2013-02-07 08:23:00,63.8,62.0,30.05,East,91,1.0,1.0,94,0.00,,---,0.00,VWS V14.01,2013-02-07 13:23:00,
2013-02-07 08:28:00,64.7,62.6,30.05,SE,126,1.0,1.0,93,0.00,,---,0.00,VWS V14.01,2013-02-07 13:28:00,
2013-02-07 08:30:00,64.9,62.8,30.05,ESE,106,1.0,1.0,93,0.00,,---,0.00,VWS V14.01,2013-02-07 13:30:00,
2013-02-07 08:33:00,66.0,63.6,30.05,NE,43,0.0,2.0,92,0.00,,---,0.00,VWS V14.01,2013-02-07 13:33:00,
2013-02-07 08:38:00,67.2,63.8,30.04,SSE,154,0.0,2.0,89,0.00,,---,0.00,VWS V14.01,2013-02-07 13:38:00,
2013-02-07 08:40:00,67.2,63.8,30.04,SSE,154,0.0,2.0,89,0.00,,---,0.00,VWS V14.01,2013-02-07 13:40:00,
2013-02-07 08:43:00,68.1,64.4,30.05,ESE,120,1.0,3.0,88,0.00,,---,0.00,VWS V14.01,2013-02-07 13:43:00,
2013-02-07 08:48:00,69.1,64.4,30.05,ENE,58,1.0,3.0,85,0.00,,---,0.00,VWS V14.01,2013-02-07 13:48:00,
2013-02-07 08:50:00,69.1,64.4,30.05,NNE,23,0.0,3.0,85,0.00,,---,0.00,VWS V14.01,2013-02-07 13:50:00,
2013-02-07 08:53:00,69.1,64.1,30.05,ENE,72,1.0,3.0,84,0.00,,---,0.00,VWS V14.01,2013-02-07 13:53:00,
2013-02-07 08:58:00,68.8,63.8,30.05,ESE,117,0.0,3.0,84,0.00,,---,0.00,VWS V14.01,2013-02-07 13:58:00,
2013-02-07 09:00:00,68.8,63.8,30.05,ESE,115,0.0,3.0,84,0.00,,---,0.00,VWS V14.01,2013-02-07 14:00:00,
2013-02-07 09:03:00,68.6,63.6,30.05,ENE,73,2.0,4.0,84,0.00,,---,0.00,VWS V14.01,2013-02-07 14:03:00,
2013-02-07 09:08:00,68.6,63.9,30.04,ENE,68,1.0,4.0,85,0.00,,---,0.00,VWS V14.01,2013-02-07 14:08:00,
2013-02-07 09:10:00,68.6,63.9,30.04,East,86,0.0,4.0,85,0.00,,---,0.00,VWS V14.01,2013-02-07 14:10:00,
2013-02-07 09:13:00,68.8,64.1,30.04,ESE,122,1.0,2.0,85,0.00,,---,0.00,VWS V14.01,2013-02-07 14:13:00,
2013-02-07 09:18:00,69.8,64.8,30.04,ESE,102,1.0,3.0,84,0.00,,---,0.00,VWS V14.01,2013-02-07 14:18:00,
2013-02-07 09:20:00,69.9,64.5,30.04,ENE,75,1.0,3.0,83,0.00,,---,0.00,VWS V14.01,2013-02-07 14:20:00,
2013-02-07 09:23:00,70.6,64.5,30.04,NE,54,1.0,5.0,81,0.00,,---,0.00,VWS V14.01,2013-02-07 14:23:00,
2013-02-07 09:28:00,70.7,64.2,30.04,ESE,110,3.0,6.0,80,0.00,,---,0.00,VWS V14.01,2013-02-07 14:28:00,
2013-02-07 09:30:00,70.7,64.2,30.04,NE,56,3.0,6.0,80,0.00,,---,0.00,VWS V14.01,2013-02-07 14:30:00,
2013-02-07 09:34:00,70.7,64.2,30.04,NNW,345,1.0,5.0,80,0.00,,---,0.00,VWS V14.01,2013-02-07 14:34:00,
2013-02-07 09:39:00,70.8,64.3,30.05,SSW,193,3.0,5.0,80,0.00,,---,0.00,VWS V14.01,2013-02-07 14:39:00,
2013-02-07 09:40:00,70.8,64.3,30.05,East,82,1.0,5.0,80,0.00,,---,0.00,VWS V14.01,2013-02-07 14:40:00,
2013-02-07 09:44:00,71.6,65.1,30.05,South,187,0.0,2.0,80,0.00,,---,0.00,VWS V14.01,2013-02-07 14:44:00,
2013-02-07 09:49:00,72.2,65.0,30.05,East,80,2.0,3.0,78,0.00,,---,0.00,VWS V14.01,2013-02-07 14:49:00,
2013-02-07 09:50:00,72.2,65.0,30.05,East,81,1.0,3.0,78,0.00,,---,0.00,VWS V14.01,2013-02-07 14:50:00,
2013-02-07 09:54:00,72.8,65.2,30.05,NW,311,0.0,5.0,77,0.00,,---,0.00,VWS V14.01,2013-02-07 14:54:00,
2013-02-07 09:59:00,73.5,65.5,30.05,ENE,70,0.0,5.0,76,0.00,,---,0.00,VWS V14.01,2013-02-07 14:59:00,
2013-02-07 10:00:00,73.6,65.6,30.05,ENE,70,0.0,5.0,76,0.00,,---,0.00,VWS V14.01,2013-02-07 15:00:00,
2013-02-07 10:04:00,74.1,65.3,30.05,ENE,72,3.0,6.0,74,0.00,,---,0.00,VWS V14.01,2013-02-07 15:04:00,
2013-02-07 10:09:00,74.4,65.2,30.05,NW,321,0.0,7.0,73,0.00,,---,0.00,VWS V14.01,2013-02-07 15:09:00,
2013-02-07 10:10:00,74.4,65.2,30.05,NE,43,3.0,7.0,73,0.00,,---,0.00,VWS V14.01,2013-02-07 15:10:00,
2013-02-07 10:14:00,74.3,65.1,30.04,ENE,75,1.0,5.0,73,0.00,,---,0.00,VWS V14.01,2013-02-07 15:14:00,
2013-02-07 10:19:00,74.3,65.1,30.04,WNW,290,1.0,5.0,73,0.00,,---,0.00,VWS V14.01,2013-02-07 15:19:00,
2013-02-07 10:20:00,74.3,65.1,30.04,NW,308,1.0,5.0,73,0.00,,---,0.00,VWS V14.01,2013-02-07 15:20:00,
2013-02-07 10:24:00,74.7,65.9,30.03,NE,53,1.0,3.0,74,0.00,,---,0.00,VWS V14.01,2013-02-07 15:24:00,
2013-02-07 10:29:00,75.2,65.6,30.03,NE,50,0.0,6.0,72,0.00,,---,0.00,VWS V14.01,2013-02-07 15:29:00,
2013-02-07 10:30:00,75.2,65.6,30.03,West,274,0.0,6.0,72,0.00,,---,0.00,VWS V14.01,2013-02-07 15:30:00,
2013-02-07 10:34:00,75.4,65.8,30.02,East,96,4.0,6.0,72,0.00,,---,0.00,VWS V14.01,2013-02-07 15:34:00,
2013-02-07 10:39:00,74.7,64.7,30.01,SE,144,2.0,8.0,71,0.00,,---,0.00,VWS V14.01,2013-02-07 15:39:00,
2013-02-07 10:40:00,74.7,64.7,30.01,NE,41,2.0,8.0,71,0.00,,---,0.00,VWS V14.01,2013-02-07 15:40:00,
2013-02-07 10:44:00,74.1,64.5,30.01,ENE,77,2.0,9.0,72,0.00,,---,0.00,VWS V14.01,2013-02-07 15:44:00,
2013-02-07 10:49:00,74.0,64.8,30.02,ENE,71,0.0,9.0,73,0.00,,---,0.00,VWS V14.01,2013-02-07 15:49:00,
2013-02-07 10:50:00,74.0,64.8,30.02,ENE,71,0.0,9.0,73,0.00,,---,0.00,VWS V14.01,2013-02-07 15:50:00,
2013-02-07 10:54:00,74.0,64.8,30.02,NNE,25,2.0,5.0,73,0.00,,---,0.00,VWS V14.01,2013-02-07 15:54:00,
2013-02-07 10:59:00,74.0,64.4,30.02,NE,46,2.0,6.0,72,0.00,,---,0.00,VWS V14.01,2013-02-07 15:59:00,
2013-02-07 11:00:00,74.0,64.4,30.02,ENE,60,2.0,6.0,72,0.00,,---,0.00,VWS V14.01,2013-02-07 16:00:00,
2013-02-07 11:04:00,74.1,64.5,30.02,NE,56,4.0,5.0,72,0.00,,---,0.00,VWS V14.01,2013-02-07 16:04:00,
2013-02-07 11:09:00,74.2,64.6,30.02,ENE,63,0.0,0.0,72,0.00,,---,0.00,VWS V14.01,2013-02-07 16:09:00,
2013-02-07 11:10:00,74.2,64.6,30.02,ENE,63,0.0,6.0,72,0.00,,---,0.00,VWS V14.01,2013-02-07 16:10:00,
2013-02-07 11:14:00,74.3,64.3,30.01,NNW,338,2.0,8.0,71,0.00,,---,0.00,VWS V14.01,2013-02-07 16:14:00,
2013-02-07 11:19:00,74.5,64.5,30.01,East,89,2.0,8.0,71,0.00,,---,0.00,VWS V14.01,2013-02-07 16:19:00,
2013-02-07 11:20:00,77.9,64.3,29.99,NE,49,1.0,7.0,63,0.00,,---,0.00,VWS V14.01,2013-02-07 16:20:00,
2013-02-07 11:24:00,74.6,64.6,30.01,ESE,121,1.0,8.0,71,0.00,,---,0.00,VWS V14.01,2013-02-07 16:24:00,
2013-02-07 11:29:00,74.9,64.5,30.00,ENE,57,3.0,3.0,70,0.00,,---,0.00,VWS V14.01,2013-02-07 16:29:00,
2013-02-07 11:30:00,74.9,64.5,30.00,East,98,2.0,8.0,70,0.00,,---,0.00,VWS V14.01,2013-02-07 16:30:00,
2013-02-07 11:34:00,75.9,65.4,30.00,ESE,103,2.0,6.0,70,0.00,,---,0.00,VWS V14.01,2013-02-07 16:34:00,
2013-02-07 11:39:00,76.8,65.9,30.00,East,95,4.0,6.0,69,0.00,,---,0.00,VWS V14.01,2013-02-07 16:39:00,
2013-02-07 11:40:00,76.8,65.9,30.00,East,95,4.0,6.0,69,0.00,,---,0.00,VWS V14.01,2013-02-07 16:40:00,
2013-02-07 11:44:00,77.1,64.9,30.00,ENE,74,5.0,6.0,66,0.00,,---,0.00,VWS V14.01,2013-02-07 16:44:00,
2013-02-07 11:49:00,77.0,64.8,30.00,ENE,71,3.0,3.0,66,0.00,,---,0.00,VWS V14.01,2013-02-07 16:49:00,
2013-02-07 11:50:00,77.0,64.8,30.00,NE,56,3.0,6.0,66,0.00,,---,0.00,VWS V14.01,2013-02-07 16:50:00,
2013-02-07 11:54:00,77.4,64.7,29.99,NNE,33,2.0,8.0,65,0.00,,---,0.00,VWS V14.01,2013-02-07 16:54:00,
2013-02-07 11:59:00,77.7,65.0,29.98,NE,56,4.0,8.0,65,0.00,,---,0.00,VWS V14.01,2013-02-07 16:59:00,
2013-02-07 12:00:00,77.7,65.0,29.98,NE,56,4.0,8.0,65,0.00,,---,0.00,VWS V14.01,2013-02-07 17:00:00,
2013-02-07 12:04:00,77.7,64.6,29.98,ENE,75,2.0,7.0,64,0.00,,---,0.00,VWS V14.01,2013-02-07 17:04:00,
2013-02-07 12:09:00,77.2,64.1,29.98,NE,49,7.0,7.0,64,0.00,,---,0.00,VWS V14.01,2013-02-07 17:09:00,
2013-02-07 12:10:00,77.2,64.1,29.98,NE,49,7.0,7.0,64,0.00,,---,0.00,VWS V14.01,2013-02-07 17:10:00,
2013-02-07 12:14:00,77.6,64.5,29.98,South,180,3.0,7.0,64,0.00,,---,0.00,VWS V14.01,2013-02-07 17:14:00,
2013-02-07 12:19:00,77.9,64.3,29.99,NE,49,1.0,7.0,63,0.00,,---,0.00,VWS V14.01,2013-02-07 17:19:00,
2013-02-07 12:20:00,77.9,64.3,29.99,NE,49,1.0,7.0,63,0.00,,---,0.00,VWS V14.01,2013-02-07 17:20:00,
2013-02-07 12:24:00,77.9,64.3,30.00,ENE,70,2.0,8.0,63,0.00,,---,0.00,VWS V14.01,2013-02-07 17:24:00,
2013-02-07 12:29:00,77.5,63.5,30.00,NNE,13,4.0,4.0,62,0.00,,---,0.00,VWS V14.01,2013-02-07 17:29:00,
2013-02-07 12:30:00,77.5,63.5,30.00,WNW,288,2.0,8.0,62,0.00,,---,0.00,VWS V14.01,2013-02-07 17:30:00,
2013-02-07 12:34:00,77.0,63.9,29.99,ENE,76,2.0,6.0,64,0.00,,---,0.00,VWS V14.01,2013-02-07 17:34:00,
2013-02-07 12:39:00,77.3,64.2,29.98,North,354,2.0,4.0,64,0.00,,---,0.00,VWS V14.01,2013-02-07 17:39:00,
2013-02-07 12:40:00,77.3,64.2,29.98,ENE,72,4.0,7.0,64,0.00,,---,0.00,VWS V14.01,2013-02-07 17:40:00,
2013-02-07 12:44:00,77.9,64.3,29.98,East,85,2.0,4.0,63,0.00,,---,0.00,VWS V14.01,2013-02-07 17:44:00,
2013-02-07 12:49:00,78.0,63.9,29.97,East,91,2.0,2.0,62,0.00,,---,0.00,VWS V14.01,2013-02-07 17:49:00,
2013-02-07 12:50:00,78.0,63.9,29.97,NNW,329,2.0,10.0,62,0.00,,---,0.00,VWS V14.01,2013-02-07 17:50:00,
2013-02-07 12:54:00,77.9,63.8,29.95,East,85,4.0,6.0,62,0.00,,---,0.00,VWS V14.01,2013-02-07 17:54:00,
2013-02-07 12:59:00,77.7,63.2,29.95,ESE,123,3.0,3.0,61,0.00,,---,0.00,VWS V14.01,2013-02-07 17:59:00,
2013-02-07 13:00:00,77.7,63.2,29.95,ENE,72,2.0,6.0,61,0.00,,---,0.00,VWS V14.01,2013-02-07 18:00:00,
2013-02-07 13:04:00,77.8,63.3,29.95,North,8,1.0,8.0,61,0.00,,---,0.00,VWS V14.01,2013-02-07 18:04:00,
2013-02-07 13:09:00,78.3,63.8,29.95,East,91,2.0,4.0,61,0.00,,---,0.00,VWS V14.01,2013-02-07 18:09:00,
2013-02-07 13:10:00,78.3,63.8,29.95,ENE,58,3.0,8.0,61,0.00,,---,0.00,VWS V14.01,2013-02-07 18:10:00,
2013-02-07 13:14:00,78.2,63.2,29.95,WSW,238,2.0,8.0,60,0.00,,---,0.00,VWS V14.01,2013-02-07 18:14:00,
2013-02-07 13:19:00,78.2,63.7,29.94,East,89,2.0,2.0,61,0.00,,---,0.00,VWS V14.01,2013-02-07 18:19:00,
2013-02-07 13:20:00,78.2,63.7,29.94,NNW,336,2.0,8.0,61,0.00,,---,0.00,VWS V14.01,2013-02-07 18:20:00,
2013-02-07 13:24:00,78.3,63.3,29.94,NE,51,3.0,6.0,60,0.00,,---,0.00,VWS V14.01,2013-02-07 18:24:00,
2013-02-07 13:29:00,78.0,63.5,29.93,ESE,103,2.0,6.0,61,0.00,,---,0.00,VWS V14.01,2013-02-07 18:29:00,
2013-02-07 13:30:00,78.0,63.5,29.93,ESE,115,4.0,9.0,61,0.00,,---,0.00,VWS V14.01,2013-02-07 18:30:00,
2013-02-07 13:34:00,78.1,63.6,29.93,ENE,75,5.0,6.0,61,0.00,,---,0.00,VWS V14.01,2013-02-07 18:34:00,
2013-02-07 13:39:00,78.6,63.6,29.93,East,81,5.0,5.0,60,0.00,,---,0.00,VWS V14.01,2013-02-07 18:39:00,
2013-02-07 13:40:00,78.6,63.6,29.93,NE,56,4.0,6.0,60,0.00,,---,0.00,VWS V14.01,2013-02-07 18:40:00,
2013-02-07 13:44:00,78.4,63.4,29.93,WSW,255,4.0,6.0,60,0.00,,---,0.00,VWS V14.01,2013-02-07 18:44:00,
2013-02-07 13:49:00,78.2,63.2,29.92,ESE,110,3.0,4.0,60,0.00,,---,0.00,VWS V14.01,2013-02-07 18:49:00,
2013-02-07 13:50:00,78.2,63.2,29.92,East,98,2.0,8.0,60,0.00,,---,0.00,VWS V14.01,2013-02-07 18:50:00,
2013-02-07 13:54:00,78.0,63.5,29.92,East,101,1.0,5.0,61,0.00,,---,0.00,VWS V14.01,2013-02-07 18:54:00,
2013-02-07 13:59:00,78.0,63.5,29.91,ENE,71,2.0,2.0,61,0.00,,---,0.00,VWS V14.01,2013-02-07 18:59:00,
2013-02-07 14:00:00,78.0,63.5,29.92,NE,54,2.0,5.0,61,0.00,,---,0.00,VWS V14.01,2013-02-07 19:00:00,
2013-02-07 14:04:00,78.3,63.3,29.91,NE,37,2.0,8.0,60,0.00,,---,0.00,VWS V14.01,2013-02-07 19:04:00,
2013-02-07 14:09:00,79.0,63.9,29.91,NNE,19,5.0,6.0,60,0.00,,---,0.00,VWS V14.01,2013-02-07 19:09:00,
2013-02-07 14:10:00,78.9,63.8,29.91,ENE,71,3.0,8.0,60,0.00,,---,0.00,VWS V14.01,2013-02-07 19:10:00,
2013-02-07 14:14:00,80.0,64.4,29.90,ENE,78,3.0,6.0,59,0.00,,---,0.00,VWS V14.01,2013-02-07 19:14:00,
2013-02-07 14:19:00,80.3,64.2,29.89,ENE,65,4.0,5.0,58,0.00,,---,0.00,VWS V14.01,2013-02-07 19:19:00,
2013-02-07 14:20:00,80.3,64.7,29.89,South,189,2.0,8.0,59,0.00,,---,0.00,VWS V14.01,2013-02-07 19:20:00,
2013-02-07 14:24:00,79.9,63.3,29.89,ESE,118,2.0,7.0,57,0.00,,---,0.00,VWS V14.01,2013-02-07 19:24:00,
2013-02-07 14:29:00,79.2,63.2,29.89,ENE,67,4.0,4.0,58,0.00,,---,0.00,VWS V14.01,2013-02-07 19:29:00,
2013-02-07 14:30:00,79.3,63.3,29.89,NNE,17,2.0,9.0,58,0.00,,---,0.00,VWS V14.01,2013-02-07 19:30:00,
2013-02-07 14:34:00,78.8,63.3,29.89,ENE,77,2.0,6.0,59,0.00,,---,0.00,VWS V14.01,2013-02-07 19:34:00,
2013-02-07 14:39:00,78.6,63.1,29.89,ENE,65,6.0,6.0,59,0.00,,---,0.00,VWS V14.01,2013-02-07 19:39:00,
2013-02-07 14:40:00,78.6,63.1,29.89,ENE,63,2.0,9.0,59,0.00,,---,0.00,VWS V14.01,2013-02-07 19:40:00,
2013-02-07 14:44:00,78.6,63.1,29.89,WNW,291,3.0,6.0,59,0.00,,---,0.00,VWS V14.01,2013-02-07 19:44:00,
2013-02-07 14:49:00,78.6,63.1,29.89,ENE,64,2.0,3.0,59,0.00,,---,0.00,VWS V14.01,2013-02-07 19:49:00,
2013-02-07 14:50:00,78.6,62.6,29.89,ENE,71,2.0,6.0,58,0.00,,---,0.00,VWS V14.01,2013-02-07 19:50:00,
2013-02-07 14:54:00,78.7,63.2,29.89,ENE,70,2.0,6.0,59,0.00,,---,0.00,VWS V14.01,2013-02-07 19:54:00,
2013-02-07 14:59:00,78.6,63.1,29.88,NE,56,3.0,5.0,59,0.00,,---,0.00,VWS V14.01,2013-02-07 19:59:00,
2013-02-07 15:00:00,78.6,63.1,29.88,East,91,1.0,7.0,59,0.00,,---,0.00,VWS V14.01,2013-02-07 20:00:00,
2013-02-07 15:04:00,78.8,63.3,29.88,ENE,77,2.0,6.0,59,0.00,,---,0.00,VWS V14.01,2013-02-07 20:04:00,
2013-02-07 15:09:00,78.8,63.3,29.88,ESE,108,5.0,7.0,59,0.00,,---,0.00,VWS V14.01,2013-02-07 20:09:00,
2013-02-07 15:10:00,78.9,63.4,29.88,East,79,1.0,8.0,59,0.00,,---,0.00,VWS V14.01,2013-02-07 20:10:00,
2013-02-07 15:15:00,78.7,62.2,29.89,ENE,60,2.0,7.0,57,0.00,,---,0.00,VWS V14.01,2013-02-07 20:15:00,
2013-02-07 15:20:00,78.7,62.2,29.89,ENE,74,1.0,4.0,57,0.00,,---,0.00,VWS V14.01,2013-02-07 20:20:00,
2013-02-07 15:25:00,78.7,62.2,29.89,SE,146,0.0,4.0,57,0.00,,---,0.00,VWS V14.01,2013-02-07 20:25:00,
2013-02-07 15:30:00,78.8,62.3,29.89,East,83,1.0,3.0,57,0.00,,---,0.00,VWS V14.01,2013-02-07 20:30:00,
2013-02-07 15:35:00,78.6,63.6,29.89,ENE,71,1.0,3.0,60,0.00,,---,0.00,VWS V14.01,2013-02-07 20:35:00,
2013-02-07 15:40:00,78.1,64.0,29.89,South,174,0.0,4.0,62,0.00,,---,0.00,VWS V14.01,2013-02-07 20:40:00,
2013-02-07 15:45:00,77.6,64.0,29.89,SSW,204,2.0,4.0,63,0.00,,---,0.00,VWS V14.01,2013-02-07 20:45:00,
2013-02-07 15:50:00,77.3,64.2,29.88,North,8,1.0,3.0,64,0.00,,---,0.00,VWS V14.01,2013-02-07 20:50:00,
2013-02-07 15:55:00,77.4,63.8,29.87,ESE,117,1.0,4.0,63,0.00,,---,0.00,VWS V14.01,2013-02-07 20:55:00,
2013-02-07 16:00:00,77.7,62.7,29.87,West,275,0.0,2.0,60,0.00,,---,0.00,VWS V14.01,2013-02-07 21:00:00,
2013-02-07 16:05:00,78.1,62.6,29.87,NNE,33,1.0,5.0,59,0.00,,---,0.00,VWS V14.01,2013-02-07 21:05:00,
2013-02-07 16:10:00,78.6,63.1,29.87,ENE,70,1.0,2.0,59,0.00,,---,0.00,VWS V14.01,2013-02-07 21:10:00,
2013-02-07 16:15:00,79.2,63.2,29.86,NW,312,2.0,7.0,58,0.00,,---,0.00,VWS V14.01,2013-02-07 21:15:00,
2013-02-07 16:20:00,79.0,62.5,29.86,East,91,3.0,3.0,57,0.00,,---,0.00,VWS V14.01,2013-02-07 21:20:00,
2013-02-07 16:25:00,78.6,62.6,29.86,ENE,68,4.0,5.0,58,0.00,,---,0.00,VWS V14.01,2013-02-07 21:25:00,
2013-02-07 16:30:00,78.5,63.0,29.87,ENE,58,0.0,1.0,59,0.00,,---,0.00,VWS V14.01,2013-02-07 21:30:00,
2013-02-07 16:35:00,78.4,63.4,29.87,NNW,332,1.0,3.0,60,0.00,,---,0.00,VWS V14.01,2013-02-07 21:35:00,
2013-02-07 16:40:00,78.2,63.2,29.87,NNE,12,1.0,5.0,60,0.00,,---,0.00,VWS V14.01,2013-02-07 21:40:00,
2013-02-07 16:45:00,77.9,62.9,29.87,WNW,285,0.0,5.0,60,0.00,,---,0.00,VWS V14.01,2013-02-07 21:45:00,
2013-02-07 16:50:00,77.6,63.1,29.86,ENE,65,2.0,3.0,61,0.00,,---,0.00,VWS V14.01,2013-02-07 21:50:00,
2013-02-07 16:55:00,77.3,63.3,29.85,ENE,76,1.0,7.0,62,0.00,,---,0.00,VWS V14.01,2013-02-07 21:55:00,
2013-02-07 17:00:00,76.8,63.3,29.86,ESE,103,1.0,5.0,63,0.00,,---,0.00,VWS V14.01,2013-02-07 22:00:00,
2013-02-07 17:05:00,76.5,63.0,29.85,East,80,1.0,5.0,63,0.00,,---,0.00,VWS V14.01,2013-02-07 22:05:00,
2013-02-07 17:10:00,76.4,62.9,29.84,WSW,246,2.0,3.0,63,0.00,,---,0.00,VWS V14.01,2013-02-07 22:10:00,
2013-02-07 17:15:00,76.4,62.9,29.84,ESE,116,1.0,3.0,63,0.00,,---,0.00,VWS V14.01,2013-02-07 22:15:00,
2013-02-07 17:20:00,76.4,62.9,29.84,ESE,108,1.0,2.0,63,0.00,,---,0.00,VWS V14.01,2013-02-07 22:20:00,
2013-02-07 17:25:00,76.3,62.8,29.85,East,88,1.0,3.0,63,0.00,,---,0.00,VWS V14.01,2013-02-07 22:25:00,
2013-02-07 17:30:00,76.3,62.8,29.85,NE,36,0.0,2.0,63,0.00,,---,0.00,VWS V14.01,2013-02-07 22:30:00,
2013-02-07 17:35:00,76.3,62.8,29.86,SSE,167,1.0,2.0,63,0.00,,---,0.00,VWS V14.01,2013-02-07 22:35:00,
2013-02-07 17:40:00,76.2,62.7,29.86,WNW,290,0.0,0.0,63,0.00,,---,0.00,VWS V14.01,2013-02-07 22:40:00,
2013-02-07 17:45:00,76.1,62.6,29.87,West,260,1.0,1.0,63,0.00,,---,0.00,VWS V14.01,2013-02-07 22:45:00,
2013-02-07 17:50:00,76.0,63.8,29.91,West,274,4.0,7.0,66,0.00,,---,0.00,VWS V14.01,2013-02-07 22:50:00,
2013-02-07 17:56:00,74.6,65.0,29.91,WSW,252,2.0,8.0,72,0.05,,---,0.05,VWS V14.01,2013-02-07 22:56:00,
2013-02-07 18:00:00,73.2,65.2,29.90,West,281,0.0,8.0,76,0.06,,---,0.06,VWS V14.01,2013-02-07 23:00:00,
2013-02-07 18:01:00,72.6,65.0,29.91,WSW,256,1.0,3.0,77,0.06,,---,0.06,VWS V14.01,2013-02-07 23:01:00,
2013-02-07 18:06:00,71.1,64.6,29.89,WSW,253,0.0,3.0,80,0.06,,---,0.06,VWS V14.01,2013-02-07 23:06:00,
2013-02-07 18:10:00,70.6,64.5,29.89,WSW,252,0.0,3.0,81,0.06,,---,0.06,VWS V14.01,2013-02-07 23:10:00,
2013-02-07 18:11:00,70.4,64.7,29.89,WSW,253,0.0,0.0,82,0.06,,---,0.06,VWS V14.01,2013-02-07 23:11:00,
2013-02-07 18:16:00,69.8,64.4,29.90,WSW,253,0.0,1.0,83,0.06,,---,0.06,VWS V14.01,2013-02-07 23:16:00,
2013-02-07 18:20:00,69.6,64.6,29.90,WSW,253,0.0,1.0,84,0.06,,---,0.06,VWS V14.01,2013-02-07 23:20:00,
2013-02-07 18:21:00,69.5,64.8,29.89,WSW,253,0.0,0.0,85,0.06,,---,0.06,VWS V14.01,2013-02-07 23:21:00,
2013-02-07 18:26:00,69.1,64.4,29.89,WSW,253,0.0,0.0,85,0.06,,---,0.06,VWS V14.01,2013-02-07 23:26:00,
2013-02-07 18:30:00,68.9,64.2,29.89,WSW,252,0.0,0.0,85,0.06,,---,0.06,VWS V14.01,2013-02-07 23:30:00,
2013-02-07 18:31:00,68.8,64.4,29.89,WSW,253,0.0,0.0,86,0.06,,---,0.06,VWS V14.01,2013-02-07 23:31:00,
2013-02-07 18:36:00,68.6,64.6,29.90,WSW,253,0.0,0.0,87,0.06,,---,0.06,VWS V14.01,2013-02-07 23:36:00,
2013-02-07 18:40:00,68.4,64.4,29.90,WSW,252,0.0,0.0,87,0.06,,---,0.06,VWS V14.01,2013-02-07 23:40:00,
2013-02-07 18:41:00,68.4,64.4,29.89,WSW,253,0.0,0.0,87,0.06,,---,0.06,VWS V14.01,2013-02-07 23:41:00,
2013-02-07 18:46:00,68.3,64.3,29.89,WSW,253,0.0,1.0,87,0.06,,---,0.06,VWS V14.01,2013-02-07 23:46:00,
2013-02-07 18:50:00,68.2,64.2,29.89,SE,129,0.0,1.0,87,0.06,,---,0.06,VWS V14.01,2013-02-07 23:50:00,
2013-02-07 18:51:00,68.2,64.2,29.89,SE,129,0.0,0.0,87,0.06,,---,0.06,VWS V14.01,2013-02-07 23:51:00,
2013-02-07 18:56:00,68.4,64.1,29.88,East,86,0.0,0.0,86,0.06,,---,0.06,VWS V14.01,2013-02-07 23:56:00,
2013-02-07 19:00:00,68.5,64.2,29.89,WNW,300,1.0,1.0,86,0.06,,---,0.06,VWS V14.01,2013-02-08 00:00:00,
2013-02-07 19:01:00,68.5,63.8,29.89,WNW,299,0.0,1.0,85,0.00,,---,0.06,VWS V14.01,2013-02-08 00:01:00,
2013-02-07 19:06:00,68.6,63.6,29.88,SSE,158,0.0,3.0,84,0.00,,---,0.06,VWS V14.01,2013-02-08 00:06:00,
2013-02-07 19:10:00,68.8,63.8,29.88,South,177,0.0,3.0,84,0.00,,---,0.06,VWS V14.01,2013-02-08 00:10:00,
2013-02-07 19:11:00,68.9,63.5,29.88,South,180,1.0,5.0,83,0.00,,---,0.06,VWS V14.01,2013-02-08 00:11:00,
2013-02-07 19:16:00,69.3,63.6,29.88,SSW,208,0.0,5.0,82,0.00,,---,0.06,VWS V14.01,2013-02-08 00:16:00,
2013-02-07 19:20:00,69.4,63.7,29.88,WSW,242,0.0,5.0,82,0.00,,---,0.06,VWS V14.01,2013-02-08 00:20:00,
2013-02-07 19:21:00,69.4,63.7,29.88,NNW,338,0.0,0.0,82,0.00,,---,0.06,VWS V14.01,2013-02-08 00:21:00,
2013-02-07 19:26:00,69.5,63.8,29.87,East,86,0.0,1.0,82,0.00,,---,0.06,VWS V14.01,2013-02-08 00:26:00,
2013-02-07 19:30:00,69.6,63.9,29.87,East,98,0.0,1.0,82,0.00,,---,0.06,VWS V14.01,2013-02-08 00:30:00,
2013-02-07 19:31:00,69.6,63.5,29.87,North,9,0.0,2.0,81,0.00,,---,0.06,VWS V14.01,2013-02-08 00:31:00,
2013-02-07 19:36:00,69.7,64.0,29.88,SW,232,1.0,2.0,82,0.00,,---,0.06,VWS V14.01,2013-02-08 00:36:00,
2013-02-07 19:40:00,69.6,64.2,29.88,WSW,257,0.0,2.0,83,0.00,,---,0.06,VWS V14.01,2013-02-08 00:40:00,
2013-02-07 19:41:00,69.6,64.2,29.88,NW,307,1.0,1.0,83,0.00,,---,0.06,VWS V14.01,2013-02-08 00:41:00,
2013-02-07 19:46:00,69.5,64.1,29.88,SW,236,0.0,3.0,83,0.00,,---,0.06,VWS V14.01,2013-02-08 00:46:00,
2013-02-07 19:50:00,69.4,64.4,29.89,WSW,255,0.0,3.0,84,0.00,,---,0.06,VWS V14.01,2013-02-08 00:50:00,
2013-02-07 19:51:00,69.3,64.3,29.89,ENE,62,1.0,3.0,84,0.00,,---,0.06,VWS V14.01,2013-02-08 00:51:00,
2013-02-07 19:56:00,69.2,64.2,29.88,WNW,288,0.0,3.0,84,0.00,,---,0.06,VWS V14.01,2013-02-08 00:56:00,
2013-02-07 20:00:00,69.1,64.1,29.87,ENE,61,0.0,3.0,84,0.00,,---,0.06,VWS V14.01,2013-02-08 01:00:00,
2013-02-07 20:01:00,69.1,64.1,29.87,NE,47,0.0,1.0,84,0.00,,---,0.06,VWS V14.01,2013-02-08 01:01:00,
2013-02-07 20:06:00,68.9,64.2,29.87,SW,218,0.0,1.0,85,0.00,,---,0.06,VWS V14.01,2013-02-08 01:06:00,
2013-02-07 20:10:00,68.7,64.0,29.87,SW,218,0.0,1.0,85,0.00,,---,0.06,VWS V14.01,2013-02-08 01:10:00,
2013-02-07 20:11:00,68.6,63.9,29.87,SE,138,0.0,0.0,85,0.00,,---,0.06,VWS V14.01,2013-02-08 01:11:00,
2013-02-07 20:16:00,68.4,63.7,29.86,NE,50,0.0,0.0,85,0.00,,---,0.06,VWS V14.01,2013-02-08 01:16:00,
2013-02-07 20:20:00,68.4,64.1,29.86,West,259,2.0,2.0,86,0.00,,---,0.06,VWS V14.01,2013-02-08 01:20:00,
2013-02-07 20:21:00,68.5,64.2,29.86,NW,314,0.0,2.0,86,0.00,,---,0.06,VWS V14.01,2013-02-08 01:21:00,
2013-02-07 20:26:00,68.6,64.2,29.86,ESE,103,0.0,2.0,86,0.00,,---,0.06,VWS V14.01,2013-02-08 01:26:00,
2013-02-07 20:30:00,68.7,64.3,29.86,WSW,250,0.0,2.0,86,0.00,,---,0.06,VWS V14.01,2013-02-08 01:30:00,
2013-02-07 20:31:00,68.7,64.3,29.87,SSW,193,0.0,2.0,86,0.00,,---,0.06,VWS V14.01,2013-02-08 01:31:00,
2013-02-07 20:36:00,68.7,64.3,29.87,WSW,257,0.0,2.0,86,0.00,,---,0.06,VWS V14.01,2013-02-08 01:36:00,
2013-02-07 20:40:00,68.6,64.2,29.87,WSW,240,0.0,2.0,86,0.00,,---,0.06,VWS V14.01,2013-02-08 01:40:00,
2013-02-07 20:41:00,68.6,64.2,29.87,NW,315,0.0,1.0,86,0.00,,---,0.06,VWS V14.01,2013-02-08 01:41:00,
2013-02-07 20:46:00,68.4,64.4,29.87,NW,311,0.0,3.0,87,0.00,,---,0.06,VWS V14.01,2013-02-08 01:46:00,
2013-02-07 20:50:00,68.4,64.4,29.87,WNW,283,0.0,3.0,87,0.00,,---,0.06,VWS V14.01,2013-02-08 01:50:00,
2013-02-07 20:51:00,68.3,64.3,29.87,West,260,2.0,2.0,87,0.00,,---,0.06,VWS V14.01,2013-02-08 01:51:00,
2013-02-07 20:56:00,68.3,64.3,29.87,NE,54,0.0,3.0,87,0.00,,---,0.06,VWS V14.01,2013-02-08 01:56:00,
2013-02-07 21:00:00,68.3,64.3,29.87,WSW,245,0.0,6.0,87,0.00,,---,0.06,VWS V14.01,2013-02-08 02:00:00,
2013-02-07 21:01:00,68.3,64.3,29.88,NNE,32,0.0,2.0,87,0.00,,---,0.06,VWS V14.01,2013-02-08 02:01:00,
2013-02-07 21:06:00,68.3,64.6,29.88,WSW,240,0.0,4.0,88,0.00,,---,0.06,VWS V14.01,2013-02-08 02:06:00,
2013-02-07 21:10:00,68.3,64.6,29.88,SW,232,1.0,4.0,88,0.00,,---,0.06,VWS V14.01,2013-02-08 02:10:00,
2013-02-07 21:11:00,68.4,64.4,29.88,NW,323,0.0,4.0,87,0.00,,---,0.06,VWS V14.01,2013-02-08 02:11:00,
2013-02-07 21:16:00,68.5,64.5,29.88,SW,233,0.0,4.0,87,0.00,,---,0.06,VWS V14.01,2013-02-08 02:16:00,
2013-02-07 21:20:00,68.5,64.5,29.88,NW,309,2.0,4.0,87,0.00,,---,0.06,VWS V14.01,2013-02-08 02:20:00,
2013-02-07 21:21:00,68.5,64.5,29.88,WSW,257,1.0,2.0,87,0.00,,---,0.06,VWS V14.01,2013-02-08 02:21:00,
2013-02-07 21:26:00,68.6,64.6,29.88,West,276,0.0,4.0,87,0.00,,---,0.06,VWS V14.01,2013-02-08 02:26:00,
2013-02-07 21:30:00,68.7,64.7,29.88,WNW,297,0.0,4.0,87,0.00,,---,0.06,VWS V14.01,2013-02-08 02:30:00,
2013-02-07 21:31:00,68.8,64.8,29.88,SW,236,1.0,4.0,87,0.00,,---,0.06,VWS V14.01,2013-02-08 02:31:00,
2013-02-07 21:36:00,69.0,65.0,29.88,West,264,1.0,4.0,87,0.00,,---,0.06,VWS V14.01,2013-02-08 02:36:00,
2013-02-07 21:40:00,69.0,65.0,29.88,WNW,293,0.0,4.0,87,0.00,,---,0.06,VWS V14.01,2013-02-08 02:40:00,
2013-02-07 21:41:00,68.9,64.9,29.88,SE,124,1.0,2.0,87,0.00,,---,0.06,VWS V14.01,2013-02-08 02:41:00,
2013-02-07 21:46:00,68.9,64.9,29.88,WNW,297,0.0,4.0,87,0.00,,---,0.06,VWS V14.01,2013-02-08 02:46:00,
2013-02-07 21:50:00,68.8,64.8,29.88,WSW,250,2.0,4.0,87,0.00,,---,0.06,VWS V14.01,2013-02-08 02:50:00,
2013-02-07 21:51:00,68.8,64.8,29.87,WSW,248,0.0,4.0,87,0.00,,---,0.06,VWS V14.01,2013-02-08 02:51:00,
2013-02-07 21:56:00,68.8,64.8,29.87,West,269,0.0,4.0,87,0.00,,---,0.06,VWS V14.01,2013-02-08 02:56:00,
2013-02-07 22:00:00,68.7,64.7,29.87,West,259,0.0,4.0,87,0.00,,---,0.06,VWS V14.01,2013-02-08 03:00:00,
2013-02-07 22:01:00,68.6,64.6,29.87,SSW,212,1.0,3.0,87,0.00,,---,0.06,VWS V14.01,2013-02-08 03:01:00,
2013-02-07 22:06:00,68.5,64.8,29.87,WSW,242,0.0,3.0,88,0.00,,---,0.06,VWS V14.01,2013-02-08 03:06:00,
2013-02-07 22:10:00,68.4,64.7,29.87,WSW,240,0.0,3.0,88,0.00,,---,0.06,VWS V14.01,2013-02-08 03:10:00,
2013-02-07 22:11:00,68.3,64.6,29.87,WNW,290,0.0,0.0,88,0.00,,---,0.06,VWS V14.01,2013-02-08 03:11:00,
2013-02-07 22:16:00,68.1,64.4,29.87,South,176,3.0,5.0,88,0.00,,---,0.06,VWS V14.01,2013-02-08 03:16:00,
2013-02-07 22:20:00,68.1,64.4,29.87,SW,218,1.0,5.0,88,0.00,,---,0.06,VWS V14.01,2013-02-08 03:20:00,
2013-02-07 22:21:00,68.0,64.3,29.87,WSW,248,0.0,2.0,88,0.00,,---,0.06,VWS V14.01,2013-02-08 03:21:00,
2013-02-07 22:26:00,67.9,64.5,29.87,SW,233,0.0,2.0,89,0.00,,---,0.06,VWS V14.01,2013-02-08 03:26:00,
2013-02-07 22:30:00,67.8,64.4,29.87,WNW,292,0.0,3.0,89,0.00,,---,0.06,VWS V14.01,2013-02-08 03:30:00,
2013-02-07 22:31:00,67.7,64.3,29.87,WSW,257,0.0,2.0,89,0.00,,---,0.06,VWS V14.01,2013-02-08 03:31:00,
2013-02-07 22:36:00,67.6,64.2,29.87,West,281,0.0,2.0,89,0.00,,---,0.06,VWS V14.01,2013-02-08 03:36:00,
2013-02-07 22:40:00,67.6,64.2,29.87,WNW,285,0.0,2.0,89,0.00,,---,0.06,VWS V14.01,2013-02-08 03:40:00,
2013-02-07 22:41:00,67.6,64.2,29.88,West,266,1.0,1.0,89,0.00,,---,0.06,VWS V14.01,2013-02-08 03:41:00,
2013-02-07 22:46:00,67.4,64.1,29.88,SW,222,1.0,3.0,89,0.00,,---,0.06,VWS V14.01,2013-02-08 03:46:00,
2013-02-07 22:50:00,67.3,64.3,29.88,SW,225,0.0,3.0,90,0.00,,---,0.06,VWS V14.01,2013-02-08 03:50:00,
2013-02-07 22:51:00,67.2,64.2,29.88,West,270,1.0,2.0,90,0.00,,---,0.06,VWS V14.01,2013-02-08 03:51:00,
2013-02-07 22:56:00,67.1,64.1,29.88,NW,309,1.0,2.0,90,0.00,,---,0.06,VWS V14.01,2013-02-08 03:56:00,
2013-02-07 23:00:00,67.0,64.0,29.88,WSW,239,0.0,2.0,90,0.00,,---,0.06,VWS V14.01,2013-02-08 04:00:00,
2013-02-07 23:01:00,66.9,63.9,29.88,West,262,1.0,1.0,90,0.00,,---,0.06,VWS V14.01,2013-02-08 04:01:00,
2013-02-07 23:06:00,66.9,64.2,29.88,South,181,0.0,3.0,91,0.00,,---,0.06,VWS V14.01,2013-02-08 04:06:00,
2013-02-07 23:10:00,66.9,64.2,29.88,WNW,298,1.0,3.0,91,0.00,,---,0.06,VWS V14.01,2013-02-08 04:10:00,
2013-02-07 23:11:00,66.8,64.1,29.88,WNW,287,0.0,2.0,91,0.00,,---,0.06,VWS V14.01,2013-02-08 04:11:00,
2013-02-07 23:16:00,66.7,64.0,29.88,WNW,287,0.0,2.0,91,0.00,,---,0.06,VWS V14.01,2013-02-08 04:16:00,
2013-02-07 23:20:00,66.7,64.0,29.88,West,273,1.0,2.0,91,0.00,,---,0.06,VWS V14.01,2013-02-08 04:20:00,
2013-02-07 23:21:00,66.6,63.9,29.89,West,264,0.0,1.0,91,0.00,,---,0.06,VWS V14.01,2013-02-08 04:21:00,
2013-02-07 23:26:00,66.6,63.9,29.89,WNW,298,0.0,3.0,91,0.00,,---,0.06,VWS V14.01,2013-02-08 04:26:00,
2013-02-07 23:30:00,66.5,63.8,29.89,WNW,285,0.0,3.0,91,0.00,,---,0.06,VWS V14.01,2013-02-08 04:30:00,
2013-02-07 23:32:00,66.5,63.8,29.89,WSW,255,0.0,1.0,91,0.00,,---,0.06,VWS V14.01,2013-02-08 04:32:00,
2013-02-07 23:37:00,66.4,63.7,29.88,West,275,0.0,2.0,91,0.00,,---,0.06,VWS V14.01,2013-02-08 04:37:00,
2013-02-07 23:40:00,66.3,63.9,29.88,West,277,0.0,2.0,92,0.00,,---,0.06,VWS V14.01,2013-02-08 04:40:00,
2013-02-07 23:42:00,66.2,63.8,29.89,WNW,295,0.0,2.0,92,0.00,,---,0.06,VWS V14.01,2013-02-08 04:42:00,
2013-02-07 23:47:00,66.2,63.8,29.88,West,264,2.0,2.0,92,0.00,,---,0.06,VWS V14.01,2013-02-08 04:47:00,
2013-02-07 23:50:00,66.2,63.8,29.88,WNW,302,0.0,3.0,92,0.00,,---,0.06,VWS V14.01,2013-02-08 04:50:00,
2013-02-07 23:51:00,66.2,63.8,29.88,WNW,285,1.0,2.0,92,0.00,,---,0.06,VWS V14.01,2013-02-08 04:51:00,
2013-02-07 23:57:00,66.2,63.8,29.89,WSW,255,0.0,3.0,92,0.00,,---,0.06,VWS V14.01,2013-02-08 04:57:00,